sensor_id;sensor_type;location;lat;lon;timestamp;P1;durP1;ratioP1;P2;durP2;ratioP2
52798;SDS011;38667;42.872;74.622;2023-05-07T00:00:19;14.10;;;4.97;;
52798;SDS011;38667;42.872;74.622;2023-05-07T00:02:47;13.35;;;5.30;;
52798;SDS011;38667;42.872;74.622;2023-05-07T00:05:13;22.77;;;5.47;;
52798;SDS011;38667;42.872;74.622;2023-05-07T00:07:39;22.08;;;5.80;;
52798;SDS011;38667;42.872;74.622;2023-05-07T00:10:06;22.45;;;5.35;;
52798;SDS011;38667;42.872;74.622;2023-05-07T00:12:33;21.08;;;6.22;;
52798;SDS011;38667;42.872;74.622;2023-05-07T00:15:00;26.35;;;5.68;;
52798;SDS011;38667;42.872;74.622;2023-05-07T00:17:26;26.55;;;5.57;;
52798;SDS011;38667;42.872;74.622;2023-05-07T00:19:54;22.40;;;6.05;;
52798;SDS011;38667;42.872;74.622;2023-05-07T00:22:20;22.35;;;6.15;;
52798;SDS011;38667;42.872;74.622;2023-05-07T00:24:47;15.57;;;5.90;;
52798;SDS011;38667;42.872;74.622;2023-05-07T00:27:13;18.05;;;5.18;;
52798;SDS011;38667;42.872;74.622;2023-05-07T00:29:39;21.40;;;5.60;;
52798;SDS011;38667;42.872;74.622;2023-05-07T00:32:05;20.73;;;5.63;;
52798;SDS011;38667;42.872;74.622;2023-05-07T00:34:33;17.77;;;5.60;;
52798;SDS011;38667;42.872;74.622;2023-05-07T00:37:00;15.68;;;5.80;;
52798;SDS011;38667;42.872;74.622;2023-05-07T00:39:27;16.85;;;5.40;;
52798;SDS011;38667;42.872;74.622;2023-05-07T00:41:53;19.13;;;6.40;;
52798;SDS011;38667;42.872;74.622;2023-05-07T00:44:19;19.48;;;5.43;;
52798;SDS011;38667;42.872;74.622;2023-05-07T00:46:46;19.42;;;5.82;;
52798;SDS011;38667;42.872;74.622;2023-05-07T00:49:12;17.63;;;5.40;;
52798;SDS011;38667;42.872;74.622;2023-05-07T00:51:38;23.20;;;6.00;;
52798;SDS011;38667;42.872;74.622;2023-05-07T00:54:06;16.85;;;5.43;;
52798;SDS011;38667;42.872;74.622;2023-05-07T00:56:34;24.75;;;5.90;;
52798;SDS011;38667;42.872;74.622;2023-05-07T00:59:00;20.20;;;5.70;;
52798;SDS011;38667;42.872;74.622;2023-05-07T01:01:27;17.52;;;5.53;;
52798;SDS011;38667;42.872;74.622;2023-05-07T01:03:53;18.85;;;5.43;;
52798;SDS011;38667;42.872;74.622;2023-05-07T01:06:20;19.88;;;5.97;;
52798;SDS011;38667;42.872;74.622;2023-05-07T01:08:48;14.55;;;5.38;;
52798;SDS011;38667;42.872;74.622;2023-05-07T01:11:17;11.68;;;5.38;;
52798;SDS011;38667;42.872;74.622;2023-05-07T01:13:43;12.00;;;4.45;;
52798;SDS011;38667;42.872;74.622;2023-05-07T01:16:10;17.20;;;4.40;;
52798;SDS011;38667;42.872;74.622;2023-05-07T01:18:36;17.85;;;4.93;;
52798;SDS011;38667;42.872;74.622;2023-05-07T01:21:03;11.77;;;4.97;;
52798;SDS011;38667;42.872;74.622;2023-05-07T01:23:32;13.15;;;4.43;;
52798;SDS011;38667;42.872;74.622;2023-05-07T01:25:59;12.35;;;3.65;;
52798;SDS011;38667;42.872;74.622;2023-05-07T01:28:26;11.02;;;4.15;;
52798;SDS011;38667;42.872;74.622;2023-05-07T01:30:52;20.63;;;4.78;;
52798;SDS011;38667;42.872;74.622;2023-05-07T01:33:20;10.07;;;4.18;;
52798;SDS011;38667;42.872;74.622;2023-05-07T01:35:50;10.68;;;4.13;;
52798;SDS011;38667;42.872;74.622;2023-05-07T01:38:18;11.32;;;3.42;;
52798;SDS011;38667;42.872;74.622;2023-05-07T01:40:48;12.70;;;3.70;;
52798;SDS011;38667;42.872;74.622;2023-05-07T01:43:14;16.58;;;4.47;;
52798;SDS011;38667;42.872;74.622;2023-05-07T01:45:41;13.93;;;4.47;;
52798;SDS011;38667;42.872;74.622;2023-05-07T01:48:09;10.57;;;3.80;;
52798;SDS011;38667;42.872;74.622;2023-05-07T01:50:36;17.65;;;3.92;;
52798;SDS011;38667;42.872;74.622;2023-05-07T01:53:03;16.15;;;4.03;;
52798;SDS011;38667;42.872;74.622;2023-05-07T01:55:29;10.23;;;3.97;;
52798;SDS011;38667;42.872;74.622;2023-05-07T01:57:57;13.57;;;4.18;;
52798;SDS011;38667;42.872;74.622;2023-05-07T02:00:23;8.68;;;3.95;;
52798;SDS011;38667;42.872;74.622;2023-05-07T02:02:50;9.88;;;4.25;;
52798;SDS011;38667;42.872;74.622;2023-05-07T02:05:16;16.42;;;5.50;;
52798;SDS011;38667;42.872;74.622;2023-05-07T02:07:42;8.05;;;4.65;;
52798;SDS011;38667;42.872;74.622;2023-05-07T02:10:09;10.07;;;4.65;;
52798;SDS011;38667;42.872;74.622;2023-05-07T02:12:35;16.23;;;4.55;;
52798;SDS011;38667;42.872;74.622;2023-05-07T02:15:04;10.50;;;4.25;;
52798;SDS011;38667;42.872;74.622;2023-05-07T02:17:31;9.35;;;4.13;;
52798;SDS011;38667;42.872;74.622;2023-05-07T02:19:57;10.18;;;3.78;;
52798;SDS011;38667;42.872;74.622;2023-05-07T02:22:23;9.90;;;3.33;;
52798;SDS011;38667;42.872;74.622;2023-05-07T02:24:50;9.50;;;3.33;;
52798;SDS011;38667;42.872;74.622;2023-05-07T02:27:16;9.27;;;3.10;;
52798;SDS011;38667;42.872;74.622;2023-05-07T02:29:42;23.73;;;4.57;;
52798;SDS011;38667;42.872;74.622;2023-05-07T02:32:10;11.40;;;3.95;;
52798;SDS011;38667;42.872;74.622;2023-05-07T02:34:37;15.05;;;4.32;;
52798;SDS011;38667;42.872;74.622;2023-05-07T02:37:03;9.27;;;3.80;;
52798;SDS011;38667;42.872;74.622;2023-05-07T02:39:29;13.27;;;3.40;;
52798;SDS011;38667;42.872;74.622;2023-05-07T02:41:56;9.48;;;2.83;;
52798;SDS011;38667;42.872;74.622;2023-05-07T02:44:22;10.77;;;3.03;;
52798;SDS011;38667;42.872;74.622;2023-05-07T02:46:48;17.77;;;3.40;;
52798;SDS011;38667;42.872;74.622;2023-05-07T02:49:16;8.50;;;3.00;;
52798;SDS011;38667;42.872;74.622;2023-05-07T02:51:42;9.80;;;4.07;;
52798;SDS011;38667;42.872;74.622;2023-05-07T02:54:09;15.27;;;3.22;;
52798;SDS011;38667;42.872;74.622;2023-05-07T02:56:35;24.02;;;3.60;;
52798;SDS011;38667;42.872;74.622;2023-05-07T02:59:01;9.50;;;2.90;;
52798;SDS011;38667;42.872;74.622;2023-05-07T03:01:27;11.05;;;3.40;;
52798;SDS011;38667;42.872;74.622;2023-05-07T03:03:54;13.52;;;2.80;;
52798;SDS011;38667;42.872;74.622;2023-05-07T03:06:22;12.70;;;3.22;;
52798;SDS011;38667;42.872;74.622;2023-05-07T03:08:48;14.80;;;2.97;;
52798;SDS011;38667;42.872;74.622;2023-05-07T03:11:14;13.88;;;3.08;;
52798;SDS011;38667;42.872;74.622;2023-05-07T03:13:41;10.05;;;3.40;;
52798;SDS011;38667;42.872;74.622;2023-05-07T03:16:07;9.00;;;2.58;;
52798;SDS011;38667;42.872;74.622;2023-05-07T03:18:33;10.10;;;3.17;;
52798;SDS011;38667;42.872;74.622;2023-05-07T03:20:59;15.30;;;2.80;;
52798;SDS011;38667;42.872;74.622;2023-05-07T03:23:27;12.00;;;2.97;;
52798;SDS011;38667;42.872;74.622;2023-05-07T03:25:54;8.15;;;2.85;;
52798;SDS011;38667;42.872;74.622;2023-05-07T03:28:20;8.18;;;3.22;;
52798;SDS011;38667;42.872;74.622;2023-05-07T03:30:46;15.73;;;3.20;;
52798;SDS011;38667;42.872;74.622;2023-05-07T03:33:12;15.13;;;3.17;;
52798;SDS011;38667;42.872;74.622;2023-05-07T03:35:39;9.77;;;2.97;;
52798;SDS011;38667;42.872;74.622;2023-05-07T03:38:05;8.75;;;2.95;;
52798;SDS011;38667;42.872;74.622;2023-05-07T03:40:33;14.75;;;3.60;;
52798;SDS011;38667;42.872;74.622;2023-05-07T03:42:59;16.92;;;3.47;;
52798;SDS011;38667;42.872;74.622;2023-05-07T03:45:26;13.15;;;3.25;;
52798;SDS011;38667;42.872;74.622;2023-05-07T03:47:52;15.77;;;3.17;;
52798;SDS011;38667;42.872;74.622;2023-05-07T03:50:19;13.73;;;3.58;;
52798;SDS011;38667;42.872;74.622;2023-05-07T03:52:45;10.40;;;3.47;;
52798;SDS011;38667;42.872;74.622;2023-05-07T03:55:11;11.38;;;3.35;;
52798;SDS011;38667;42.872;74.622;2023-05-07T03:57:39;12.75;;;3.15;;
52798;SDS011;38667;42.872;74.622;2023-05-07T04:00:06;9.57;;;2.78;;
52798;SDS011;38667;42.872;74.622;2023-05-07T04:02:33;13.38;;;3.38;;
52798;SDS011;38667;42.872;74.622;2023-05-07T04:04:59;12.38;;;2.80;;
52798;SDS011;38667;42.872;74.622;2023-05-07T04:07:26;8.73;;;3.30;;
52798;SDS011;38667;42.872;74.622;2023-05-07T04:09:52;12.00;;;2.72;;
52798;SDS011;38667;42.872;74.622;2023-05-07T04:12:18;12.43;;;3.25;;
52798;SDS011;38667;42.872;74.622;2023-05-07T04:14:46;11.88;;;2.72;;
52798;SDS011;38667;42.872;74.622;2023-05-07T04:17:12;24.40;;;3.58;;
52798;SDS011;38667;42.872;74.622;2023-05-07T04:19:39;9.43;;;2.65;;
52798;SDS011;38667;42.872;74.622;2023-05-07T04:22:05;15.00;;;3.78;;
52798;SDS011;38667;42.872;74.622;2023-05-07T04:24:31;15.27;;;3.28;;
52798;SDS011;38667;42.872;74.622;2023-05-07T04:26:58;15.35;;;3.00;;
52798;SDS011;38667;42.872;74.622;2023-05-07T04:29:24;13.40;;;3.17;;
52798;SDS011;38667;42.872;74.622;2023-05-07T04:31:52;11.18;;;3.20;;
52798;SDS011;38667;42.872;74.622;2023-05-07T04:34:18;13.90;;;3.40;;
52798;SDS011;38667;42.872;74.622;2023-05-07T04:36:44;13.23;;;3.55;;
52798;SDS011;38667;42.872;74.622;2023-05-07T04:39:11;20.38;;;3.53;;
52798;SDS011;38667;42.872;74.622;2023-05-07T04:41:37;12.35;;;3.45;;
52798;SDS011;38667;42.872;74.622;2023-05-07T04:44:03;14.90;;;3.03;;
52798;SDS011;38667;42.872;74.622;2023-05-07T04:46:30;15.90;;;3.65;;
52798;SDS011;38667;42.872;74.622;2023-05-07T04:48:57;10.68;;;3.10;;
52798;SDS011;38667;42.872;74.622;2023-05-07T04:51:24;11.50;;;3.08;;
52798;SDS011;38667;42.872;74.622;2023-05-07T04:53:50;14.85;;;3.28;;
52798;SDS011;38667;42.872;74.622;2023-05-07T04:56:16;15.80;;;3.83;;
52798;SDS011;38667;42.872;74.622;2023-05-07T04:58:43;11.05;;;3.72;;
52798;SDS011;38667;42.872;74.622;2023-05-07T05:01:09;13.25;;;3.80;;
52798;SDS011;38667;42.872;74.622;2023-05-07T05:03:35;15.55;;;3.22;;
52798;SDS011;38667;42.872;74.622;2023-05-07T05:06:03;13.57;;;3.28;;
52798;SDS011;38667;42.872;74.622;2023-05-07T05:08:29;10.32;;;3.80;;
52798;SDS011;38667;42.872;74.622;2023-05-07T05:10:56;15.75;;;3.17;;
52798;SDS011;38667;42.872;74.622;2023-05-07T05:13:22;20.08;;;3.85;;
52798;SDS011;38667;42.872;74.622;2023-05-07T05:15:48;8.80;;;3.20;;
52798;SDS011;38667;42.872;74.622;2023-05-07T05:18:15;17.25;;;3.95;;
52798;SDS011;38667;42.872;74.622;2023-05-07T05:20:41;15.35;;;3.53;;
52798;SDS011;38667;42.872;74.622;2023-05-07T05:23:09;11.93;;;3.25;;
52798;SDS011;38667;42.872;74.622;2023-05-07T05:25:36;8.65;;;3.30;;
52798;SDS011;38667;42.872;74.622;2023-05-07T05:28:02;16.42;;;4.45;;
52798;SDS011;38667;42.872;74.622;2023-05-07T05:30:28;19.40;;;4.47;;
52798;SDS011;38667;42.872;74.622;2023-05-07T05:32:55;13.30;;;4.47;;
52798;SDS011;38667;42.872;74.622;2023-05-07T05:35:21;14.07;;;4.60;;
52798;SDS011;38667;42.872;74.622;2023-05-07T05:37:47;17.55;;;4.43;;
52798;SDS011;38667;42.872;74.622;2023-05-07T05:40:15;11.40;;;4.05;;
52798;SDS011;38667;42.872;74.622;2023-05-07T05:42:42;17.83;;;4.65;;
52798;SDS011;38667;42.872;74.622;2023-05-07T05:45:08;14.35;;;4.75;;
52798;SDS011;38667;42.872;74.622;2023-05-07T05:47:37;12.00;;;3.88;;
52798;SDS011;38667;42.872;74.622;2023-05-07T05:50:03;10.77;;;3.80;;
52798;SDS011;38667;42.872;74.622;2023-05-07T05:52:31;15.38;;;5.00;;
52798;SDS011;38667;42.872;74.622;2023-05-07T05:54:57;18.67;;;4.00;;
52798;SDS011;38667;42.872;74.622;2023-05-07T05:57:25;14.45;;;4.40;;
52798;SDS011;38667;42.872;74.622;2023-05-07T05:59:51;12.10;;;4.15;;
52798;SDS011;38667;42.872;74.622;2023-05-07T06:02:17;20.40;;;4.40;;
52798;SDS011;38667;42.872;74.622;2023-05-07T06:04:44;17.88;;;5.53;;
52798;SDS011;38667;42.872;74.622;2023-05-07T06:07:10;12.63;;;4.00;;
52798;SDS011;38667;42.872;74.622;2023-05-07T06:09:36;13.30;;;4.20;;
52798;SDS011;38667;42.872;74.622;2023-05-07T06:12:03;18.48;;;4.00;;
52798;SDS011;38667;42.872;74.622;2023-05-07T06:14:31;11.30;;;3.95;;
52798;SDS011;38667;42.872;74.622;2023-05-07T06:16:57;8.77;;;3.83;;
52798;SDS011;38667;42.872;74.622;2023-05-07T06:19:23;11.90;;;3.97;;
52798;SDS011;38667;42.872;74.622;2023-05-07T06:21:50;10.57;;;4.18;;
52798;SDS011;38667;42.872;74.622;2023-05-07T06:24:16;17.58;;;4.03;;
52798;SDS011;38667;42.872;74.622;2023-05-07T06:26:42;14.25;;;4.00;;
52798;SDS011;38667;42.872;74.622;2023-05-07T06:29:09;8.38;;;3.85;;
52798;SDS011;38667;42.872;74.622;2023-05-07T06:31:36;14.82;;;4.72;;
52798;SDS011;38667;42.872;74.622;2023-05-07T06:34:03;12.90;;;3.88;;
52798;SDS011;38667;42.872;74.622;2023-05-07T06:36:29;11.60;;;3.80;;
52798;SDS011;38667;42.872;74.622;2023-05-07T06:38:55;17.48;;;3.90;;
52798;SDS011;38667;42.872;74.622;2023-05-07T06:41:22;13.50;;;3.53;;
52798;SDS011;38667;42.872;74.622;2023-05-07T06:43:48;13.57;;;3.83;;
52798;SDS011;38667;42.872;74.622;2023-05-07T06:46:14;9.50;;;3.85;;
52798;SDS011;38667;42.872;74.622;2023-05-07T06:48:42;14.93;;;3.40;;
52798;SDS011;38667;42.872;74.622;2023-05-07T06:51:09;10.73;;;3.22;;
52798;SDS011;38667;42.872;74.622;2023-05-07T06:53:35;13.60;;;3.80;;
52798;SDS011;38667;42.872;74.622;2023-05-07T06:56:01;15.57;;;4.10;;
52798;SDS011;38667;42.872;74.622;2023-05-07T06:58:28;11.32;;;3.28;;
52798;SDS011;38667;42.872;74.622;2023-05-07T07:00:55;7.45;;;3.50;;
52798;SDS011;38667;42.872;74.622;2023-05-07T07:03:21;10.73;;;3.95;;
52798;SDS011;38667;42.872;74.622;2023-05-07T07:05:49;9.43;;;3.40;;
52798;SDS011;38667;42.872;74.622;2023-05-07T07:08:17;11.35;;;3.72;;
52798;SDS011;38667;42.872;74.622;2023-05-07T07:10:43;11.90;;;3.67;;
52798;SDS011;38667;42.872;74.622;2023-05-07T07:13:09;7.45;;;2.97;;
52798;SDS011;38667;42.872;74.622;2023-05-07T07:15:36;13.18;;;3.42;;
52798;SDS011;38667;42.872;74.622;2023-05-07T07:18:02;13.95;;;3.72;;
52798;SDS011;38667;42.872;74.622;2023-05-07T07:20:28;8.48;;;4.28;;
52798;SDS011;38667;42.872;74.622;2023-05-07T07:22:56;16.27;;;4.00;;
52798;SDS011;38667;42.872;74.622;2023-05-07T07:25:23;15.23;;;4.07;;
52798;SDS011;38667;42.872;74.622;2023-05-07T07:27:49;16.55;;;5.60;;
52798;SDS011;38667;42.872;74.622;2023-05-07T07:30:15;11.57;;;5.20;;
52798;SDS011;38667;42.872;74.622;2023-05-07T07:32:42;13.15;;;4.30;;
52798;SDS011;38667;42.872;74.622;2023-05-07T07:35:08;12.00;;;4.05;;
52798;SDS011;38667;42.872;74.622;2023-05-07T07:37:35;10.60;;;3.95;;
52798;SDS011;38667;42.872;74.622;2023-05-07T07:40:03;14.00;;;4.00;;
52798;SDS011;38667;42.872;74.622;2023-05-07T07:42:29;10.88;;;3.45;;
52798;SDS011;38667;42.872;74.622;2023-05-07T07:44:56;11.27;;;4.35;;
52798;SDS011;38667;42.872;74.622;2023-05-07T07:47:22;15.27;;;4.13;;
52798;SDS011;38667;42.872;74.622;2023-05-07T07:49:48;14.13;;;4.22;;
52798;SDS011;38667;42.872;74.622;2023-05-07T07:52:15;14.48;;;4.32;;
52798;SDS011;38667;42.872;74.622;2023-05-07T07:54:41;9.60;;;3.60;;
52798;SDS011;38667;42.872;74.622;2023-05-07T07:57:09;10.18;;;2.97;;
52798;SDS011;38667;42.872;74.622;2023-05-07T07:59:35;8.57;;;2.97;;
52798;SDS011;38667;42.872;74.622;2023-05-07T08:02:01;7.07;;;2.97;;
52798;SDS011;38667;42.872;74.622;2023-05-07T08:04:28;9.52;;;3.53;;
52798;SDS011;38667;42.872;74.622;2023-05-07T08:06:54;5.90;;;3.25;;
52798;SDS011;38667;42.872;74.622;2023-05-07T08:09:20;14.55;;;4.00;;
52798;SDS011;38667;42.872;74.622;2023-05-07T08:11:46;12.77;;;4.47;;
52798;SDS011;38667;42.872;74.622;2023-05-07T08:14:14;9.55;;;3.40;;
52798;SDS011;38667;42.872;74.622;2023-05-07T08:16:41;11.02;;;2.95;;
52798;SDS011;38667;42.872;74.622;2023-05-07T08:19:07;10.90;;;3.03;;
52798;SDS011;38667;42.872;74.622;2023-05-07T08:21:33;13.23;;;2.92;;
52798;SDS011;38667;42.872;74.622;2023-05-07T08:24:00;12.27;;;3.85;;
52798;SDS011;38667;42.872;74.622;2023-05-07T08:26:26;11.38;;;3.10;;
52798;SDS011;38667;42.872;74.622;2023-05-07T08:28:52;14.10;;;3.45;;
52798;SDS011;38667;42.872;74.622;2023-05-07T08:31:20;8.00;;;2.60;;
52798;SDS011;38667;42.872;74.622;2023-05-07T08:33:46;12.38;;;2.83;;
52798;SDS011;38667;42.872;74.622;2023-05-07T08:36:13;9.85;;;3.33;;
52798;SDS011;38667;42.872;74.622;2023-05-07T08:38:39;9.88;;;2.50;;
52798;SDS011;38667;42.872;74.622;2023-05-07T08:41:05;11.70;;;3.10;;
52798;SDS011;38667;42.872;74.622;2023-05-07T08:43:34;8.02;;;3.22;;
52798;SDS011;38667;42.872;74.622;2023-05-07T08:46:03;10.35;;;3.00;;
52798;SDS011;38667;42.872;74.622;2023-05-07T08:48:32;20.05;;;3.30;;
52798;SDS011;38667;42.872;74.622;2023-05-07T08:50:58;9.68;;;3.70;;
52798;SDS011;38667;42.872;74.622;2023-05-07T08:53:25;10.75;;;3.20;;
52798;SDS011;38667;42.872;74.622;2023-05-07T08:55:51;10.93;;;3.20;;
52798;SDS011;38667;42.872;74.622;2023-05-07T08:58:18;8.95;;;3.15;;
52798;SDS011;38667;42.872;74.622;2023-05-07T09:00:45;4.03;;;2.67;;
52798;SDS011;38667;42.872;74.622;2023-05-07T09:03:12;7.93;;;2.80;;
52798;SDS011;38667;42.872;74.622;2023-05-07T09:05:40;9.45;;;2.85;;
52798;SDS011;38667;42.872;74.622;2023-05-07T09:08:07;6.57;;;2.92;;
52798;SDS011;38667;42.872;74.622;2023-05-07T09:10:33;8.55;;;3.25;;
52798;SDS011;38667;42.872;74.622;2023-05-07T09:13:00;13.68;;;3.42;;
52798;SDS011;38667;42.872;74.622;2023-05-07T09:15:28;9.32;;;2.78;;
52798;SDS011;38667;42.872;74.622;2023-05-07T09:17:54;8.82;;;3.42;;
52798;SDS011;38667;42.872;74.622;2023-05-07T09:20:25;16.02;;;3.85;;
52798;SDS011;38667;42.872;74.622;2023-05-07T09:22:53;13.25;;;3.78;;
52798;SDS011;38667;42.872;74.622;2023-05-07T09:25:27;12.02;;;3.85;;
52798;SDS011;38667;42.872;74.622;2023-05-07T09:27:54;8.02;;;3.22;;
52798;SDS011;38667;42.872;74.622;2023-05-07T09:30:20;10.55;;;3.25;;
52798;SDS011;38667;42.872;74.622;2023-05-07T09:32:47;8.77;;;3.40;;
52798;SDS011;38667;42.872;74.622;2023-05-07T09:35:16;12.65;;;3.00;;
52798;SDS011;38667;42.872;74.622;2023-05-07T09:37:43;12.70;;;3.17;;
52798;SDS011;38667;42.872;74.622;2023-05-07T09:40:12;10.60;;;3.63;;
52798;SDS011;38667;42.872;74.622;2023-05-07T09:42:46;7.30;;;3.33;;
52798;SDS011;38667;42.872;74.622;2023-05-07T09:45:13;9.45;;;3.10;;
52798;SDS011;38667;42.872;74.622;2023-05-07T09:47:39;8.50;;;2.78;;
52798;SDS011;38667;42.872;74.622;2023-05-07T09:50:08;9.00;;;3.63;;
52798;SDS011;38667;42.872;74.622;2023-05-07T09:52:35;6.03;;;3.03;;
52798;SDS011;38667;42.872;74.622;2023-05-07T09:55:02;11.88;;;3.55;;
52798;SDS011;38667;42.872;74.622;2023-05-07T09:57:30;10.63;;;3.28;;
52798;SDS011;38667;42.872;74.622;2023-05-07T09:59:57;10.20;;;3.50;;
52798;SDS011;38667;42.872;74.622;2023-05-07T10:02:25;16.52;;;3.63;;
52798;SDS011;38667;42.872;74.622;2023-05-07T10:04:54;12.65;;;3.38;;
52798;SDS011;38667;42.872;74.622;2023-05-07T10:07:21;15.82;;;4.68;;
52798;SDS011;38667;42.872;74.622;2023-05-07T10:09:48;14.77;;;4.30;;
52798;SDS011;38667;42.872;74.622;2023-05-07T10:12:15;10.85;;;5.03;;
52798;SDS011;38667;42.872;74.622;2023-05-07T10:14:44;8.55;;;3.40;;
52798;SDS011;38667;42.872;74.622;2023-05-07T10:17:11;14.35;;;3.70;;
52798;SDS011;38667;42.872;74.622;2023-05-07T10:19:38;10.48;;;3.63;;
52798;SDS011;38667;42.872;74.622;2023-05-07T10:22:05;7.57;;;3.03;;
52798;SDS011;38667;42.872;74.622;2023-05-07T10:24:33;8.35;;;2.80;;
52798;SDS011;38667;42.872;74.622;2023-05-07T10:27:01;10.75;;;2.90;;
52798;SDS011;38667;42.872;74.622;2023-05-07T10:29:33;10.32;;;3.00;;
52798;SDS011;38667;42.872;74.622;2023-05-07T10:32:09;10.18;;;3.20;;
52798;SDS011;38667;42.872;74.622;2023-05-07T10:34:53;9.00;;;3.55;;
52798;SDS011;38667;42.872;74.622;2023-05-07T10:37:22;14.23;;;3.70;;
52798;SDS011;38667;42.872;74.622;2023-05-07T10:39:50;10.07;;;3.58;;
52798;SDS011;38667;42.872;74.622;2023-05-07T10:42:17;13.25;;;3.58;;
52798;SDS011;38667;42.872;74.622;2023-05-07T10:44:43;6.60;;;3.50;;
52798;SDS011;38667;42.872;74.622;2023-05-07T10:47:12;14.20;;;4.13;;
52798;SDS011;38667;42.872;74.622;2023-05-07T10:52:46;8.35;;;3.00;;
52798;SDS011;38667;42.872;74.622;2023-05-07T10:58:50;12.50;;;3.53;;
52798;SDS011;38667;42.872;74.622;2023-05-07T11:01:17;10.18;;;3.78;;
52798;SDS011;38667;42.872;74.622;2023-05-07T11:04:17;14.15;;;3.35;;
52798;SDS011;38667;42.872;74.622;2023-05-07T11:06:49;12.68;;;3.17;;
52798;SDS011;38667;42.872;74.622;2023-05-07T11:09:58;8.65;;;2.80;;
52798;SDS011;38667;42.872;74.622;2023-05-07T11:18:01;4.22;;;3.08;;
52798;SDS011;38667;42.872;74.622;2023-05-07T11:26:16;6.25;;;2.88;;
52798;SDS011;38667;42.872;74.622;2023-05-07T11:28:43;8.27;;;3.05;;
52798;SDS011;38667;42.872;74.622;2023-05-07T11:31:09;8.02;;;2.90;;
52798;SDS011;38667;42.872;74.622;2023-05-07T11:33:36;8.88;;;3.55;;
52798;SDS011;38667;42.872;74.622;2023-05-07T11:36:05;6.65;;;3.00;;
52798;SDS011;38667;42.872;74.622;2023-05-07T11:38:34;6.70;;;3.00;;
52798;SDS011;38667;42.872;74.622;2023-05-07T11:41:02;9.63;;;3.63;;
52798;SDS011;38667;42.872;74.622;2023-05-07T11:43:28;9.02;;;3.10;;
52798;SDS011;38667;42.872;74.622;2023-05-07T11:45:54;9.15;;;3.42;;
52798;SDS011;38667;42.872;74.622;2023-05-07T11:48:30;12.00;;;3.30;;
52798;SDS011;38667;42.872;74.622;2023-05-07T11:51:00;13.00;;;3.13;;
52798;SDS011;38667;42.872;74.622;2023-05-07T11:53:34;7.00;;;3.10;;
52798;SDS011;38667;42.872;74.622;2023-05-07T11:56:05;11.18;;;3.65;;
52798;SDS011;38667;42.872;74.622;2023-05-07T11:58:32;8.93;;;3.70;;
52798;SDS011;38667;42.872;74.622;2023-05-07T12:00:59;10.90;;;3.85;;
52798;SDS011;38667;42.872;74.622;2023-05-07T12:03:25;9.32;;;3.78;;
52798;SDS011;38667;42.872;74.622;2023-05-07T12:05:52;13.00;;;3.65;;
52798;SDS011;38667;42.872;74.622;2023-05-07T12:08:18;8.40;;;3.10;;
52798;SDS011;38667;42.872;74.622;2023-05-07T12:10:47;10.27;;;3.22;;
52798;SDS011;38667;42.872;74.622;2023-05-07T12:13:15;9.93;;;3.40;;
52798;SDS011;38667;42.872;74.622;2023-05-07T12:15:42;6.88;;;2.92;;
52798;SDS011;38667;42.872;74.622;2023-05-07T12:18:08;10.98;;;3.30;;
52798;SDS011;38667;42.872;74.622;2023-05-07T12:20:35;9.00;;;3.53;;
52798;SDS011;38667;42.872;74.622;2023-05-07T12:23:02;8.68;;;3.50;;
52798;SDS011;38667;42.872;74.622;2023-05-07T12:25:29;11.85;;;3.28;;
52798;SDS011;38667;42.872;74.622;2023-05-07T12:27:57;10.13;;;3.63;;
52798;SDS011;38667;42.872;74.622;2023-05-07T12:30:26;12.77;;;3.67;;
52798;SDS011;38667;42.872;74.622;2023-05-07T12:32:52;13.82;;;3.70;;
52798;SDS011;38667;42.872;74.622;2023-05-07T12:35:26;11.45;;;3.20;;
52798;SDS011;38667;42.872;74.622;2023-05-07T12:37:54;12.40;;;3.65;;
52798;SDS011;38667;42.872;74.622;2023-05-07T12:40:21;9.73;;;4.07;;
52798;SDS011;38667;42.872;74.622;2023-05-07T12:42:47;10.15;;;3.95;;
52798;SDS011;38667;42.872;74.622;2023-05-07T12:45:20;8.98;;;3.70;;
52798;SDS011;38667;42.872;74.622;2023-05-07T12:47:46;11.70;;;3.72;;
52798;SDS011;38667;42.872;74.622;2023-05-07T12:50:13;11.80;;;3.30;;
52798;SDS011;38667;42.872;74.622;2023-05-07T12:52:39;13.23;;;3.75;;
52798;SDS011;38667;42.872;74.622;2023-05-07T12:55:06;10.82;;;3.97;;
52798;SDS011;38667;42.872;74.622;2023-05-07T12:57:37;9.35;;;3.45;;
52798;SDS011;38667;42.872;74.622;2023-05-07T13:00:04;10.55;;;4.20;;
52798;SDS011;38667;42.872;74.622;2023-05-07T13:02:33;14.15;;;3.40;;
52798;SDS011;38667;42.872;74.622;2023-05-07T13:05:03;7.75;;;3.42;;
52798;SDS011;38667;42.872;74.622;2023-05-07T13:07:29;10.52;;;3.80;;
52798;SDS011;38667;42.872;74.622;2023-05-07T13:09:55;10.80;;;3.58;;
52798;SDS011;38667;42.872;74.622;2023-05-07T13:12:22;11.70;;;3.70;;
52798;SDS011;38667;42.872;74.622;2023-05-07T13:14:48;11.80;;;3.85;;
52798;SDS011;38667;42.872;74.622;2023-05-07T13:17:14;13.50;;;3.75;;
52798;SDS011;38667;42.872;74.622;2023-05-07T13:19:42;16.50;;;4.78;;
52798;SDS011;38667;42.872;74.622;2023-05-07T13:22:08;15.07;;;5.53;;
52798;SDS011;38667;42.872;74.622;2023-05-07T13:24:35;21.77;;;6.00;;
52798;SDS011;38667;42.872;74.622;2023-05-07T13:27:01;14.60;;;5.38;;
52798;SDS011;38667;42.872;74.622;2023-05-07T13:29:27;18.42;;;5.47;;
52798;SDS011;38667;42.872;74.622;2023-05-07T13:31:54;22.10;;;6.35;;
52798;SDS011;38667;42.872;74.622;2023-05-07T13:34:20;20.92;;;5.78;;
52798;SDS011;38667;42.872;74.622;2023-05-07T13:36:48;17.15;;;5.18;;
52798;SDS011;38667;42.872;74.622;2023-05-07T13:39:14;22.67;;;5.18;;
52798;SDS011;38667;42.872;74.622;2023-05-07T13:41:41;20.92;;;5.65;;
52798;SDS011;38667;42.872;74.622;2023-05-07T13:44:07;19.52;;;6.45;;
52798;SDS011;38667;42.872;74.622;2023-05-07T13:46:33;13.30;;;5.40;;
52798;SDS011;38667;42.872;74.622;2023-05-07T13:48:59;20.80;;;5.93;;
52798;SDS011;38667;42.872;74.622;2023-05-07T13:51:26;14.20;;;5.70;;
52798;SDS011;38667;42.872;74.622;2023-05-07T13:53:54;17.35;;;6.13;;
52798;SDS011;38667;42.872;74.622;2023-05-07T13:56:20;18.95;;;6.63;;
52798;SDS011;38667;42.872;74.622;2023-05-07T13:58:46;21.92;;;8.10;;
52798;SDS011;38667;42.872;74.622;2023-05-07T14:01:13;23.58;;;8.02;;
52798;SDS011;38667;42.872;74.622;2023-05-07T14:03:39;20.55;;;8.15;;
52798;SDS011;38667;42.872;74.622;2023-05-07T14:06:05;27.20;;;8.02;;
52798;SDS011;38667;42.872;74.622;2023-05-07T14:08:32;22.10;;;8.95;;
52798;SDS011;38667;42.872;74.622;2023-05-07T14:10:59;22.67;;;8.65;;
52798;SDS011;38667;42.872;74.622;2023-05-07T14:13:26;22.77;;;8.18;;
52798;SDS011;38667;42.872;74.622;2023-05-07T14:15:52;20.98;;;8.13;;
52798;SDS011;38667;42.872;74.622;2023-05-07T14:18:18;25.08;;;9.07;;
52798;SDS011;38667;42.872;74.622;2023-05-07T14:20:45;29.35;;;8.15;;
52798;SDS011;38667;42.872;74.622;2023-05-07T14:23:11;19.27;;;8.52;;
52798;SDS011;38667;42.872;74.622;2023-05-07T14:25:37;29.42;;;8.52;;
52798;SDS011;38667;42.872;74.622;2023-05-07T14:28:05;30.05;;;12.00;;
52798;SDS011;38667;42.872;74.622;2023-05-07T14:30:32;22.38;;;8.88;;
52798;SDS011;38667;42.872;74.622;2023-05-07T14:32:58;26.08;;;9.20;;
52798;SDS011;38667;42.872;74.622;2023-05-07T14:35:24;22.10;;;8.38;;
52798;SDS011;38667;42.872;74.622;2023-05-07T14:37:51;22.90;;;9.75;;
52798;SDS011;38667;42.872;74.622;2023-05-07T14:40:17;23.65;;;9.75;;